createdAt,value
2023-03-12T00:00:29.099Z,1.50
2023-03-12T00:03:59.285Z,1.80
2023-03-12T00:07:28.181Z,0.80
2023-03-12T00:11:00.929Z,0.20
2023-03-12T00:14:36.274Z,0.70
2023-03-12T00:18:05.661Z,0.20
2023-03-12T00:21:35.363Z,1.40
2023-03-12T00:25:05.806Z,2.00
2023-03-12T00:28:35.601Z,1.20
2023-03-12T00:32:07.862Z,0.20
2023-03-12T00:35:37.158Z,2.30
2023-03-12T00:39:07.052Z,0.30
2023-03-12T00:42:36.656Z,0.90
2023-03-12T00:46:06.681Z,0.20
2023-03-12T00:49:36.878Z,0.30
2023-03-12T00:53:00.087Z,0.40
2023-03-12T00:56:29.179Z,2.00
2023-03-12T00:59:59.412Z,0.70
2023-03-12T01:03:22.450Z,0.50
2023-03-12T01:06:52.618Z,0.30
2023-03-12T01:10:23.009Z,0.70
2023-03-12T01:13:52.985Z,0.80
2023-03-12T01:17:23.081Z,0.20
2023-03-12T01:20:53.542Z,0.20
2023-03-12T01:24:23.180Z,1.40
2023-03-12T01:27:51.938Z,0.10
2023-03-12T01:31:22.498Z,2.50
2023-03-12T01:34:52.859Z,0.60
2023-03-12T01:38:22.604Z,0.10
2023-03-12T01:41:53.310Z,0.40
2023-03-12T01:45:35.812Z,0.60
2023-03-12T01:49:05.449Z,0.30
2023-03-12T01:52:36.432Z,0.50
2023-03-12T01:56:05.688Z,0.60
2023-03-12T01:59:35.823Z,0.30
2023-03-12T02:03:06.556Z,0.50
2023-03-12T02:06:51.732Z,0.30
2023-03-12T02:10:21.445Z,0.30
2023-03-12T02:13:50.525Z,0.40
2023-03-12T02:17:17.991Z,0.10
2023-03-12T02:20:55.737Z,0.70
2023-03-12T02:24:32.836Z,1.80
2023-03-12T02:28:02.935Z,2.40
2023-03-12T02:31:24.713Z,0.20
2023-03-12T02:34:54.285Z,0.30
2023-03-12T02:38:59.999Z,0.70
2023-03-12T02:42:25.858Z,0.20
2023-03-12T02:49:06.245Z,0.30
2023-03-12T02:52:35.315Z,0.50
2023-03-12T02:56:05.624Z,0.30
2023-03-12T02:59:36.106Z,0.90
2023-03-12T03:03:05.423Z,1.40
2023-03-12T03:06:34.588Z,0.30
2023-03-12T03:10:04.489Z,0.60
2023-03-12T03:13:34.339Z,2.80
2023-03-12T03:17:04.847Z,3.50
2023-03-12T03:20:33.564Z,0.50
2023-03-12T03:23:54.280Z,0.20
2023-03-12T03:27:24.313Z,0.40
2023-03-12T03:30:58.445Z,5.40
2023-03-12T03:34:09.011Z,0.30
2023-03-12T03:37:39.797Z,1.80
2023-03-12T03:41:09.091Z,0.40
2023-03-12T03:44:39.344Z,0.60
2023-03-12T03:47:54.434Z,0.30
2023-03-12T03:51:07.989Z,2.00
2023-03-12T03:57:54.416Z,2.00
2023-03-12T04:01:23.890Z,0.90
2023-03-12T04:04:53.104Z,0.60
2023-03-12T04:08:22.518Z,1.40
2023-03-12T04:11:51.854Z,0.50
2023-03-12T04:15:21.177Z,1.20
2023-03-12T04:18:50.831Z,0.40
2023-03-12T04:22:20.430Z,1.90
2023-03-12T04:25:50.142Z,0.80
2023-03-12T04:29:19.749Z,3.20
2023-03-12T04:32:27.697Z,1.20
2023-03-12T04:35:56.940Z,0.90
2023-03-12T04:39:26.205Z,1.20
2023-03-12T04:42:55.678Z,2.20
2023-03-12T04:46:24.977Z,3.70
2023-03-12T04:49:54.226Z,1.00
2023-03-12T04:53:24.415Z,0.50
2023-03-12T04:56:53.679Z,1.10
2023-03-12T05:00:17.786Z,0.60
2023-03-12T05:03:47.845Z,0.70
2023-03-12T05:07:18.026Z,1.40
2023-03-12T05:10:49.901Z,2.00
2023-03-12T05:14:09.223Z,2.00
2023-03-12T05:17:29.690Z,2.40
2023-03-12T05:20:59.378Z,1.20
2023-03-12T05:24:29.266Z,1.50
2023-03-12T05:27:58.704Z,1.00
2023-03-12T05:31:27.921Z,2.60
2023-03-12T05:34:36.944Z,1.30
2023-03-12T05:38:06.281Z,2.90
2023-03-12T05:41:19.768Z,1.40
2023-03-12T05:44:52.011Z,1.00
2023-03-12T05:48:21.469Z,1.10
2023-03-12T05:51:51.299Z,1.90
2023-03-12T05:55:20.649Z,1.70
2023-03-12T05:58:50.120Z,2.10
2023-03-12T06:02:22.884Z,0.90
2023-03-12T06:05:52.028Z,5.00
2023-03-12T06:09:21.231Z,2.00
2023-03-12T06:12:50.836Z,1.30
2023-03-12T06:16:20.484Z,3.30
2023-03-12T06:19:50.803Z,2.60
2023-03-12T06:23:22.981Z,3.70
2023-03-12T06:26:52.391Z,3.90
2023-03-12T06:30:21.361Z,11.00
2023-03-12T06:33:50.964Z,15.10
2023-03-12T06:37:20.517Z,5.80
2023-03-12T06:40:50.144Z,6.30
2023-03-12T06:44:19.124Z,3.20
2023-03-12T06:47:48.546Z,7.30
2023-03-12T06:51:18.701Z,9.50
2023-03-12T06:54:48.764Z,9.00
2023-03-12T06:58:08.478Z,3.00
2023-03-12T07:01:20.593Z,5.80
2023-03-12T07:04:50.369Z,5.00
2023-03-12T07:08:19.601Z,1.90
2023-03-12T07:11:49.386Z,2.90
2023-03-12T07:15:18.778Z,1.40
2023-03-12T07:18:48.166Z,3.10
2023-03-12T07:22:18.240Z,3.80
2023-03-12T07:25:48.229Z,3.10
2023-03-12T07:28:50.282Z,3.90
2023-03-12T07:32:20.106Z,3.40
2023-03-12T07:35:51.747Z,3.20
2023-03-12T07:39:21.204Z,3.10
2023-03-12T07:42:50.500Z,6.30
2023-03-12T07:46:20.208Z,5.80
2023-03-12T07:49:48.641Z,3.70
2023-03-12T07:53:18.128Z,4.90
2023-03-12T07:56:48.319Z,7.30
2023-03-12T08:00:11.365Z,2.90
2023-03-12T08:03:40.562Z,3.00
2023-03-12T08:07:09.323Z,8.00
2023-03-12T08:10:38.442Z,1.60
2023-03-12T08:14:07.704Z,4.60
2023-03-12T08:17:37.296Z,2.50
2023-03-12T08:21:07.040Z,3.60
2023-03-12T08:24:36.545Z,4.20
2023-03-12T08:28:06.354Z,3.30
2023-03-12T08:31:35.767Z,2.70
2023-03-12T08:35:05.274Z,5.80
2023-03-12T08:38:27.804Z,1.70
2023-03-12T08:41:57.261Z,4.50
2023-03-12T08:45:26.533Z,1.50
2023-03-12T08:48:55.885Z,3.40
2023-03-12T08:52:28.144Z,2.90
2023-03-12T08:55:57.627Z,2.80
2023-03-12T08:59:06.959Z,3.90
2023-03-12T09:02:35.326Z,5.00
2023-03-12T09:06:05.180Z,2.60
2023-03-12T09:09:34.440Z,3.20
2023-03-12T09:12:53.158Z,4.10
2023-03-12T09:16:10.929Z,1.90
2023-03-12T09:19:40.252Z,2.20
2023-03-12T09:23:08.937Z,1.00
2023-03-12T09:26:38.385Z,1.10
2023-03-12T09:30:00.540Z,2.00
2023-03-12T09:33:20.159Z,1.20
2023-03-12T09:36:43.151Z,2.90
2023-03-12T09:40:12.757Z,0.80
2023-03-12T09:43:45.101Z,2.50
2023-03-12T09:47:17.110Z,3.80
2023-03-12T09:50:54.904Z,1.60
2023-03-12T09:54:36.258Z,1.90
2023-03-12T09:58:08.246Z,1.70
2023-03-12T10:01:27.957Z,0.90
2023-03-12T10:05:06.772Z,2.00
2023-03-12T10:08:35.036Z,2.40
2023-03-12T10:12:18.025Z,4.30
2023-03-12T10:15:56.910Z,0.70
2023-03-12T10:19:29.628Z,2.30
2023-03-12T10:23:13.365Z,1.00
2023-03-12T10:27:01.406Z,0.80
2023-03-12T10:30:33.496Z,0.80
2023-03-12T10:34:03.628Z,1.80
2023-03-12T10:37:35.846Z,0.90
2023-03-12T10:41:08.555Z,3.90
2023-03-12T10:44:37.842Z,1.20
2023-03-12T10:48:27.763Z,2.30
2023-03-12T10:52:02.535Z,2.30
2023-03-12T10:55:32.082Z,0.70
2023-03-12T10:58:57.388Z,1.30
2023-03-12T11:02:12.488Z,3.00
2023-03-12T11:05:42.551Z,0.80
2023-03-12T11:09:16.910Z,2.80
2023-03-12T11:12:46.799Z,1.20
2023-03-12T11:16:22.524Z,1.10
2023-03-12T11:19:57.453Z,1.60
2023-03-12T11:23:29.642Z,0.80
2023-03-12T11:26:59.003Z,1.00
2023-03-12T11:30:31.214Z,1.80
2023-03-12T11:34:00.260Z,1.10
2023-03-12T11:37:28.106Z,1.50
2023-03-12T11:41:06.309Z,1.40
2023-03-12T11:44:54.675Z,1.60
2023-03-12T11:48:36.212Z,3.50
2023-03-12T11:52:27.236Z,3.20
2023-03-12T11:55:59.609Z,1.00
2023-03-12T11:59:38.260Z,1.60
2023-03-12T12:03:06.139Z,0.80
2023-03-12T12:06:56.357Z,0.70
2023-03-12T12:10:33.368Z,0.50
2023-03-12T12:13:55.661Z,2.00
2023-03-12T12:17:34.395Z,0.80
2023-03-12T12:21:03.881Z,0.50
2023-03-12T12:24:45.554Z,0.80
2023-03-12T12:28:27.096Z,0.80
2023-03-12T12:32:11.310Z,0.80
2023-03-12T12:35:40.985Z,1.30
2023-03-12T12:39:19.631Z,1.00
2023-03-12T12:42:49.041Z,0.80
2023-03-12T12:46:18.934Z,0.60
2023-03-12T12:50:01.449Z,0.70
2023-03-12T12:53:31.320Z,1.10
2023-03-12T12:57:13.262Z,2.40
2023-03-12T13:00:48.878Z,1.20
2023-03-12T13:04:19.001Z,2.20
2023-03-12T13:08:03.526Z,1.20
2023-03-12T13:11:21.634Z,0.50
2023-03-12T13:14:54.418Z,2.80
2023-03-12T13:18:38.968Z,1.70
2023-03-12T13:22:18.559Z,3.00
2023-03-12T13:25:51.834Z,1.00
2023-03-12T13:29:36.582Z,0.50
2023-03-12T13:33:18.331Z,3.10
2023-03-12T13:36:47.834Z,0.90
2023-03-12T13:40:11.513Z,0.60
2023-03-12T13:43:24.098Z,2.50
2023-03-12T13:47:17.862Z,1.90
2023-03-12T13:50:56.535Z,0.60
2023-03-12T13:54:10.086Z,0.60
2023-03-12T13:57:39.214Z,0.70
2023-03-12T14:01:08.915Z,0.30
2023-03-12T14:04:25.431Z,1.10
2023-03-12T14:08:01.115Z,2.60
2023-03-12T14:11:46.108Z,0.60
2023-03-12T14:15:40.105Z,0.40
2023-03-12T14:19:12.117Z,0.20
2023-03-12T14:22:44.098Z,0.60
2023-03-12T14:26:19.704Z,0.40
2023-03-12T14:29:47.301Z,4.20
2023-03-12T14:33:22.683Z,0.70
2023-03-12T14:36:52.360Z,0.90
2023-03-12T14:40:21.898Z,2.00
2023-03-12T14:44:02.974Z,1.10
2023-03-12T14:47:41.452Z,2.10
2023-03-12T14:51:10.691Z,1.70
2023-03-12T14:54:39.705Z,4.70
2023-03-12T14:58:08.911Z,2.10
2023-03-12T15:01:37.998Z,0.40
2023-03-12T15:04:57.356Z,0.30
2023-03-12T15:08:22.040Z,0.30
2023-03-12T15:11:54.164Z,0.20
2023-03-12T15:15:23.570Z,0.30
2023-03-12T15:18:56.084Z,2.60
2023-03-12T15:22:25.494Z,0.60
2023-03-12T15:26:04.166Z,0.40
2023-03-12T15:29:45.562Z,1.10
2023-03-12T15:33:18.275Z,0.40
2023-03-12T15:36:52.056Z,0.50
2023-03-12T15:40:25.080Z,0.20
2023-03-12T15:43:54.283Z,0.70
2023-03-12T15:47:07.805Z,0.50
2023-03-12T15:50:39.817Z,2.00
2023-03-12T15:54:15.770Z,0.10
2023-03-12T15:58:03.485Z,0.20
2023-03-12T16:01:32.586Z,0.20
2023-03-12T16:04:55.396Z,0.30
2023-03-12T16:08:24.958Z,0.60
2023-03-12T16:12:00.042Z,0.40
2023-03-12T16:15:08.498Z,0.50
2023-03-12T16:18:37.914Z,0.60
2023-03-12T16:22:07.272Z,0.40
2023-03-12T16:25:35.758Z,3.00
2023-03-12T16:28:48.017Z,0.40
2023-03-12T16:32:17.611Z,0.50
2023-03-12T16:35:47.083Z,0.60
2023-03-12T16:39:18.466Z,1.00
2023-03-12T16:42:48.524Z,0.30
2023-03-12T16:46:17.622Z,0.40
2023-03-12T16:49:36.827Z,0.70
2023-03-12T16:53:06.089Z,0.40
2023-03-12T16:56:38.596Z,0.40
2023-03-12T17:00:07.790Z,0.40
2023-03-12T17:03:38.261Z,2.60
2023-03-12T17:07:07.631Z,0.20
2023-03-12T17:10:37.063Z,0.20
2023-03-12T17:14:06.840Z,0.40
2023-03-12T17:17:27.571Z,0.30
2023-03-12T17:20:57.061Z,0.60
2023-03-12T17:24:26.775Z,0.40
2023-03-12T17:27:56.483Z,0.80
2023-03-12T17:31:15.839Z,0.70
2023-03-12T17:34:37.409Z,2.40
2023-03-12T17:38:07.047Z,0.30
2023-03-12T17:41:36.295Z,0.20
2023-03-12T17:44:58.480Z,0.10
2023-03-12T17:48:27.446Z,0.60
2023-03-12T17:51:56.514Z,1.10
2023-03-12T17:55:25.785Z,0.10
2023-03-12T17:58:55.903Z,0.10
2023-03-12T18:02:23.695Z,1.30
2023-03-12T18:05:53.007Z,0.20
2023-03-12T18:09:22.909Z,0.60
2023-03-12T18:12:51.976Z,0.30
2023-03-12T18:16:21.461Z,0.20
2023-03-12T18:19:51.287Z,0.30
2023-03-12T18:23:11.149Z,0.30
2023-03-12T18:26:40.021Z,0.60
2023-03-12T18:30:09.044Z,0.10
2023-03-12T18:33:37.910Z,1.20
2023-03-12T18:36:56.491Z,0.40
2023-03-12T18:40:26.342Z,0.40
2023-03-12T18:43:55.840Z,3.20
2023-03-12T18:47:15.722Z,0.10
2023-03-12T18:50:45.154Z,0.10
2023-03-12T18:54:13.938Z,0.70
2023-03-12T18:57:36.382Z,0.20
2023-03-12T19:01:05.792Z,0.60
2023-03-12T19:04:35.999Z,0.20
2023-03-12T19:08:06.287Z,1.50
2023-03-12T19:11:37.050Z,0.30
2023-03-12T19:15:06.930Z,0.60
2023-03-12T19:18:36.259Z,0.60
2023-03-12T19:22:05.826Z,0.20
2023-03-12T19:25:35.451Z,0.40
2023-03-12T19:29:05.442Z,0.10
2023-03-12T19:32:43.405Z,0.40
2023-03-12T19:36:13.975Z,0.30
2023-03-12T19:39:41.663Z,0.20
2023-03-12T19:43:10.924Z,0.40
2023-03-12T19:46:40.114Z,0.20
2023-03-12T19:50:09.216Z,0.10
2023-03-12T19:53:38.687Z,0.30
2023-03-12T19:57:08.558Z,0.30
2023-03-12T20:00:38.394Z,0.40
2023-03-12T20:04:07.497Z,0.10
2023-03-12T20:07:36.695Z,0.40
2023-03-12T20:11:06.420Z,0.10
2023-03-12T20:14:35.473Z,0.00
2023-03-12T20:18:04.925Z,0.40
2023-03-12T20:21:35.461Z,0.20
2023-03-12T20:25:04.762Z,0.20
2023-03-12T20:28:34.339Z,0.20
2023-03-12T20:32:09.891Z,0.20
2023-03-12T20:35:39.505Z,2.30
2023-03-12T20:39:08.738Z,1.70
2023-03-12T20:42:31.326Z,1.00
2023-03-12T20:45:53.471Z,0.20
2023-03-12T20:49:22.514Z,0.30
2023-03-12T20:52:52.068Z,0.40
2023-03-12T20:56:21.045Z,0.20
2023-03-12T20:59:43.162Z,0.70
2023-03-12T21:03:12.052Z,0.30
2023-03-12T21:06:41.922Z,0.20
2023-03-12T21:10:11.182Z,0.20
2023-03-12T21:13:39.498Z,0.20
2023-03-12T21:17:05.694Z,0.20
2023-03-12T21:20:35.027Z,0.20
2023-03-12T21:24:04.308Z,0.10
2023-03-12T21:27:44.500Z,0.40
2023-03-12T21:31:57.184Z,0.20
2023-03-12T21:35:09.040Z,0.30
2023-03-12T21:38:38.533Z,0.50
2023-03-12T21:42:07.742Z,0.30
2023-03-12T21:45:39.717Z,1.30
2023-03-12T21:49:08.986Z,0.60
2023-03-12T21:52:40.052Z,1.20
2023-03-12T21:56:11.092Z,0.10
2023-03-12T21:59:39.771Z,0.50
2023-03-12T22:03:09.136Z,2.40
2023-03-12T22:06:38.385Z,0.20
2023-03-12T22:10:07.876Z,0.30
2023-03-12T22:13:37.039Z,0.30
2023-03-12T22:16:59.428Z,0.20
2023-03-12T22:20:28.494Z,0.30
2023-03-12T22:23:58.143Z,0.50
2023-03-12T22:27:27.843Z,0.70
2023-03-12T22:30:56.880Z,0.10
2023-03-12T22:34:26.357Z,3.20
2023-03-12T22:37:45.947Z,0.70
2023-03-12T22:41:15.354Z,0.20
2023-03-12T22:44:35.122Z,0.80
2023-03-12T22:47:44.554Z,0.40
2023-03-12T22:51:14.096Z,0.60
2023-03-12T22:54:43.432Z,0.30
2023-03-12T22:58:12.526Z,0.30
2023-03-12T23:01:38.989Z,1.60
2023-03-12T23:04:58.064Z,1.10
2023-03-12T23:08:27.575Z,0.20
2023-03-12T23:11:57.069Z,0.40
2023-03-12T23:15:35.073Z,0.40
2023-03-12T23:19:02.650Z,0.10
2023-03-12T23:22:24.759Z,1.70
2023-03-12T23:25:54.596Z,3.30
2023-03-12T23:29:23.825Z,0.20
2023-03-12T23:32:52.905Z,0.20
2023-03-12T23:35:54.236Z,0.40
2023-03-12T23:39:23.562Z,1.30
2023-03-12T23:42:52.992Z,0.20
2023-03-12T23:46:16.541Z,0.30
2023-03-12T23:49:34.822Z,0.40
2023-03-12T23:53:04.775Z,0.30
2023-03-12T23:56:28.966Z,0.50
2023-03-12T23:59:58.006Z,0.50
